Time,TemperatureF,DewpointF,PressureIn,WindDirection,WindDirectionDegrees,WindSpeedMPH,WindSpeedGustMPH,Humidity,HourlyPrecipIn,Conditions,Clouds,dailyrainin,SoftwareType,DateUTC
2013-04-17 00:00:00,67.3,51.5,29.32,South,176,4.0,4.0,57,0.00,,BKN,0.00,VWS V13.01,2013-04-17 04:00:00,
2013-04-17 00:05:00,67.8,51.6,29.32,South,176,4.0,4.0,56,0.00,,BKN,0.00,VWS V13.01,2013-04-17 04:05:00,
2013-04-17 00:10:00,68.4,51.6,29.35,South,176,4.0,4.0,55,0.00,,BKN,0.00,VWS V13.01,2013-04-17 04:10:00,
2013-04-17 00:15:00,65.1,50.5,29.35,South,176,4.0,4.0,59,0.00,,BKN,0.00,VWS V13.01,2013-04-17 04:15:00,
2013-04-17 00:20:00,63.5,51.5,29.35,South,176,4.0,4.0,65,0.00,,BKN,0.00,VWS V13.01,2013-04-17 04:20:00,
2013-04-17 00:25:00,63.0,51.8,29.35,South,176,4.0,4.0,67,0.00,,BKN,0.00,VWS V13.01,2013-04-17 04:25:00,
2013-04-17 00:30:00,62.6,51.9,29.35,South,176,4.0,4.0,68,0.00,,BKN,0.00,VWS V13.01,2013-04-17 04:30:00,
2013-04-17 00:35:00,62.4,52.1,29.35,South,176,4.0,4.0,69,0.00,,BKN,0.00,VWS V13.01,2013-04-17 04:35:00,
2013-04-17 00:40:00,62.4,52.5,29.35,South,176,4.0,4.0,70,0.00,,BKN,0.00,VWS V13.01,2013-04-17 04:40:00,
2013-04-17 00:45:00,62.2,52.7,29.35,South,176,4.0,4.0,71,0.00,,BKN,0.00,VWS V13.01,2013-04-17 04:45:00,
2013-04-17 00:50:00,62.1,52.6,29.35,South,176,4.0,4.0,71,0.00,,BKN,0.00,VWS V13.01,2013-04-17 04:50:00,
2013-04-17 00:55:00,61.9,52.4,29.35,South,176,4.0,4.0,71,0.00,,BKN,0.00,VWS V13.01,2013-04-17 04:55:00,
2013-04-17 01:00:00,61.9,52.8,29.35,NW,313,2.7,4.0,72,0.00,,BKN,0.00,VWS V13.01,2013-04-17 05:00:00,
2013-04-17 01:05:00,61.9,54.2,29.35,NW,313,2.7,2.7,76,0.00,,BKN,0.00,VWS V13.01,2013-04-17 05:05:00,
2013-04-17 01:10:00,61.7,55.1,29.35,NW,313,2.7,2.7,79,0.00,,BKN,0.00,VWS V13.01,2013-04-17 05:10:00,
2013-04-17 01:15:00,61.5,55.0,29.35,NW,313,2.7,2.7,79,0.00,,BKN,0.00,VWS V13.01,2013-04-17 05:15:00,
2013-04-17 01:20:00,61.5,55.0,29.35,NW,313,2.7,2.7,79,0.00,,BKN,0.00,VWS V13.01,2013-04-17 05:20:00,
2013-04-17 01:25:00,61.3,54.8,29.32,NW,313,2.7,2.7,79,0.00,,BKN,0.00,VWS V13.01,2013-04-17 05:25:00,
2013-04-17 01:30:00,61.3,55.1,29.32,NW,313,2.7,2.7,80,0.00,,BKN,0.00,VWS V13.01,2013-04-17 05:30:00,
2013-04-17 01:34:00,61.3,55.5,29.32,NW,313,2.7,2.7,81,0.00,,BKN,0.00,VWS V13.01,2013-04-17 05:34:00,
2013-04-17 01:39:00,61.5,56.3,29.32,NW,313,2.7,2.7,83,0.00,,BKN,0.00,VWS V13.01,2013-04-17 05:39:00,
2013-04-17 01:44:00,61.3,56.8,29.32,NW,313,2.7,2.7,85,0.00,,BKN,0.00,VWS V13.01,2013-04-17 05:44:00,
2013-04-17 01:49:00,61.3,56.8,29.32,NW,313,2.7,2.7,85,0.00,,BKN,0.00,VWS V13.01,2013-04-17 05:49:00,
2013-04-17 01:54:00,61.2,57.0,29.29,NW,313,2.7,2.7,86,0.00,,BKN,0.00,VWS V13.01,2013-04-17 05:54:00,
2013-04-17 01:59:00,61.2,57.3,29.29,NW,313,2.7,2.7,87,0.00,,BKN,0.00,VWS V13.01,2013-04-17 05:59:00,
2013-04-17 02:04:00,61.0,57.1,29.29,NW,313,2.7,2.7,87,0.00,,BKN,0.00,VWS V13.01,2013-04-17 06:04:00,
2013-04-17 02:09:00,61.0,57.1,29.29,NW,313,2.7,2.7,87,0.00,,BKN,0.00,VWS V13.01,2013-04-17 06:09:00,
2013-04-17 02:14:00,61.0,57.1,29.29,NW,313,2.7,2.7,87,0.00,,BKN,0.00,VWS V13.01,2013-04-17 06:14:00,
2013-04-17 02:19:00,61.0,57.1,29.29,NW,313,2.7,2.7,87,0.00,,BKN,0.00,VWS V13.01,2013-04-17 06:19:00,
2013-04-17 02:24:00,60.8,56.9,29.29,NW,313,2.7,2.7,87,0.00,,BKN,0.00,VWS V13.01,2013-04-17 06:24:00,
2013-04-17 02:29:00,60.8,57.2,29.29,NW,313,2.7,2.7,88,0.00,,BKN,0.00,VWS V13.01,2013-04-17 06:29:00,
2013-04-17 02:34:00,60.8,57.2,29.29,NW,313,2.7,2.7,88,0.00,,BKN,0.00,VWS V13.01,2013-04-17 06:34:00,
2013-04-17 02:39:00,60.6,57.4,29.29,NW,313,2.7,2.7,89,0.00,,BKN,0.00,VWS V13.01,2013-04-17 06:39:00,
2013-04-17 02:44:00,60.6,57.4,29.29,NW,313,2.7,2.7,89,0.00,,BKN,0.00,VWS V13.01,2013-04-17 06:44:00,
2013-04-17 02:49:00,60.6,57.4,29.29,NW,313,2.7,2.7,89,0.00,,BKN,0.00,VWS V13.01,2013-04-17 06:49:00,
2013-04-17 02:54:00,60.6,57.4,29.26,NW,313,2.7,2.7,89,0.00,,BKN,0.00,VWS V13.01,2013-04-17 06:54:00,
2013-04-17 02:59:00,60.6,57.4,29.26,NW,313,2.7,2.7,89,0.00,,BKN,0.00,VWS V13.01,2013-04-17 06:59:00,
2013-04-17 03:04:00,60.4,57.2,29.26,NW,313,2.7,2.7,89,0.00,,BKN,0.00,VWS V13.01,2013-04-17 07:04:00,
2013-04-17 03:10:00,60.4,57.2,29.26,NW,313,2.7,2.7,89,0.00,,BKN,0.00,VWS V13.01,2013-04-17 07:10:00,
2013-04-17 03:14:00,60.4,57.2,29.26,NW,313,2.7,2.7,89,0.00,,BKN,0.00,VWS V13.01,2013-04-17 07:14:00,
2013-04-17 03:19:00,60.3,57.0,29.26,NW,313,2.7,2.7,89,0.00,,BKN,0.00,VWS V13.01,2013-04-17 07:19:00,
2013-04-17 03:24:00,60.3,57.0,29.26,NW,313,2.7,2.7,89,0.00,,BKN,0.00,VWS V13.01,2013-04-17 07:24:00,
2013-04-17 03:29:00,60.1,56.8,29.26,NW,313,2.7,2.7,89,0.00,,BKN,0.00,VWS V13.01,2013-04-17 07:29:00,
2013-04-17 03:34:00,59.9,56.7,29.26,NW,313,2.7,2.7,89,0.00,,BKN,0.00,VWS V13.01,2013-04-17 07:34:00,
2013-04-17 03:39:00,59.9,56.7,29.26,NW,313,2.7,2.7,89,0.00,,BKN,0.00,VWS V13.01,2013-04-17 07:39:00,
2013-04-17 03:44:00,59.9,56.7,29.26,NW,313,2.7,2.7,89,0.00,,BKN,0.00,VWS V13.01,2013-04-17 07:44:00,
2013-04-17 03:49:00,59.7,56.5,29.26,NW,313,2.7,2.7,89,0.00,,BKN,0.00,VWS V13.01,2013-04-17 07:49:00,
2013-04-17 03:54:00,59.7,56.5,29.26,NW,313,2.7,2.7,89,0.00,,BKN,0.00,VWS V13.01,2013-04-17 07:54:00,
2013-04-17 03:59:00,59.5,56.3,29.26,NW,313,2.7,2.7,89,0.00,,BKN,0.00,VWS V13.01,2013-04-17 07:59:00,
2013-04-17 04:04:00,59.4,56.1,29.26,NW,313,2.7,2.7,89,0.00,,BKN,0.00,VWS V13.01,2013-04-17 08:04:00,
2013-04-17 04:09:00,59.4,56.1,29.26,NW,313,2.7,2.7,89,0.00,,BKN,0.00,VWS V13.01,2013-04-17 08:09:00,
2013-04-17 04:14:00,59.2,56.0,29.26,NW,313,2.7,2.7,89,0.00,,BKN,0.00,VWS V13.01,2013-04-17 08:14:00,
2013-04-17 04:19:00,59.2,56.0,29.26,NW,313,2.7,2.7,89,0.00,,BKN,0.00,VWS V13.01,2013-04-17 08:19:00,
2013-04-17 04:24:00,59.2,56.0,29.26,NW,313,2.7,2.7,89,0.00,,BKN,0.00,VWS V13.01,2013-04-17 08:24:00,
2013-04-17 04:29:00,59.2,56.2,29.26,NW,313,2.7,2.7,90,0.00,,BKN,0.00,VWS V13.01,2013-04-17 08:29:00,
2013-04-17 04:34:00,59.0,55.8,29.26,NW,313,2.7,2.7,89,0.00,,BKN,0.00,VWS V13.01,2013-04-17 08:34:00,
2013-04-17 04:39:00,59.0,55.8,29.29,NW,313,2.7,2.7,89,0.00,,BKN,0.00,VWS V13.01,2013-04-17 08:39:00,
2013-04-17 04:44:00,59.0,55.8,29.29,NW,313,2.7,2.7,89,0.00,,BKN,0.00,VWS V13.01,2013-04-17 08:44:00,
2013-04-17 04:49:00,58.8,55.6,29.29,NW,313,2.7,2.7,89,0.00,,BKN,0.00,VWS V13.01,2013-04-17 08:49:00,
2013-04-17 04:54:00,58.8,55.6,29.29,NW,313,2.7,2.7,89,0.00,,BKN,0.00,VWS V13.01,2013-04-17 08:54:00,
2013-04-17 04:59:00,58.8,55.9,29.29,NW,313,2.7,2.7,90,0.00,,BKN,0.00,VWS V13.01,2013-04-17 08:59:00,
2013-04-17 05:04:00,58.8,55.9,29.29,NW,313,2.7,2.7,90,0.00,,BKN,0.00,VWS V13.01,2013-04-17 09:04:00,
2013-04-17 05:09:00,58.5,55.2,29.29,NW,313,2.7,2.7,89,0.00,,BKN,0.00,VWS V13.01,2013-04-17 09:09:00,
2013-04-17 05:15:00,58.1,54.9,29.29,NW,313,2.7,2.7,89,0.00,,BKN,0.00,VWS V13.01,2013-04-17 09:15:00,
2013-04-17 05:20:00,57.9,54.7,29.29,NW,313,2.7,2.7,89,0.00,,BKN,0.00,VWS V13.01,2013-04-17 09:20:00,
2013-04-17 05:25:00,57.6,54.3,29.29,NW,313,2.7,2.7,89,0.00,,BKN,0.00,VWS V13.01,2013-04-17 09:25:00,
2013-04-17 05:30:00,57.6,54.3,29.29,NW,313,2.7,2.7,89,0.00,,BKN,0.00,VWS V13.01,2013-04-17 09:30:00,
2013-04-17 05:35:00,57.4,54.2,29.29,NW,313,2.7,2.7,89,0.00,,BKN,0.00,VWS V13.01,2013-04-17 09:35:00,
2013-04-17 05:40:00,57.2,54.0,29.29,NW,313,2.7,2.7,89,0.00,,BKN,0.00,VWS V13.01,2013-04-17 09:40:00,
2013-04-17 05:45:00,57.0,53.8,29.29,NW,313,2.7,2.7,89,0.00,,BKN,0.00,VWS V13.01,2013-04-17 09:45:00,
2013-04-17 05:50:00,57.2,54.3,29.29,NW,313,2.7,2.7,90,0.00,,BKN,0.00,VWS V13.01,2013-04-17 09:50:00,
2013-04-17 05:55:00,57.4,54.5,29.29,NW,313,2.7,2.7,90,0.00,,BKN,0.00,VWS V13.01,2013-04-17 09:55:00,
2013-04-17 06:00:00,57.7,55.1,29.29,NW,313,2.7,2.7,91,0.00,,BKN,0.00,VWS V13.01,2013-04-17 10:00:00,
2013-04-17 06:05:00,57.7,55.1,29.29,NW,313,2.7,2.7,91,0.00,,BKN,0.00,VWS V13.01,2013-04-17 10:05:00,
2013-04-17 06:10:00,57.6,54.7,29.29,NW,313,2.7,2.7,90,0.00,,BKN,0.00,VWS V13.01,2013-04-17 10:10:00,
2013-04-17 06:15:00,57.4,54.5,29.29,NW,313,2.7,2.7,90,0.00,,BKN,0.00,VWS V13.01,2013-04-17 10:15:00,
2013-04-17 06:19:00,57.2,54.3,29.29,NW,313,2.7,2.7,90,0.00,,BKN,0.00,VWS V13.01,2013-04-17 10:19:00,
2013-04-17 06:24:00,57.0,54.1,29.29,NW,313,2.7,2.7,90,0.00,,BKN,0.00,VWS V13.01,2013-04-17 10:24:00,
2013-04-17 06:29:00,56.8,53.9,29.29,NW,313,2.7,2.7,90,0.00,,BKN,0.00,VWS V13.01,2013-04-17 10:29:00,
2013-04-17 06:34:00,56.8,53.9,29.29,NW,313,2.7,2.7,90,0.00,,BKN,0.00,VWS V13.01,2013-04-17 10:34:00,
2013-04-17 06:39:00,56.7,53.8,29.29,NW,313,2.7,2.7,90,0.00,,BKN,0.00,VWS V13.01,2013-04-17 10:39:00,
2013-04-17 06:44:00,56.7,53.8,29.29,NW,313,2.7,2.7,90,0.00,,BKN,0.00,VWS V13.01,2013-04-17 10:44:00,
2013-04-17 06:49:00,56.7,53.8,29.29,NW,313,2.7,2.7,90,0.00,,BKN,0.00,VWS V13.01,2013-04-17 10:49:00,
2013-04-17 06:55:00,56.7,53.8,29.32,NW,313,2.7,2.7,90,0.00,,BKN,0.00,VWS V13.01,2013-04-17 10:55:00,
2013-04-17 07:00:00,56.5,53.6,29.32,NW,313,2.7,2.7,90,0.00,,BKN,0.00,VWS V13.01,2013-04-17 11:00:00,
2013-04-17 07:04:00,56.7,53.8,29.32,NW,313,2.7,2.7,90,0.00,,BKN,0.00,VWS V13.01,2013-04-17 11:04:00,
2013-04-17 07:10:00,56.7,53.8,29.32,NW,313,2.7,2.7,90,0.00,,BKN,0.00,VWS V13.01,2013-04-17 11:10:00,
2013-04-17 07:15:00,56.8,54.2,29.32,NW,313,2.7,2.7,91,0.00,,BKN,0.00,VWS V13.01,2013-04-17 11:15:00,
2013-04-17 07:19:00,56.8,54.2,29.32,NW,313,2.7,2.7,91,0.00,,BKN,0.00,VWS V13.01,2013-04-17 11:19:00,
2013-04-17 07:24:00,56.8,54.2,29.32,NW,313,2.7,2.7,91,0.00,,BKN,0.00,VWS V13.01,2013-04-17 11:24:00,
2013-04-17 07:29:00,56.8,54.2,29.32,NW,313,2.7,2.7,91,0.00,,BKN,0.00,VWS V13.01,2013-04-17 11:29:00,
2013-04-17 07:34:00,57.0,54.4,29.32,NW,313,2.7,2.7,91,0.00,,BKN,0.00,VWS V13.01,2013-04-17 11:34:00,
2013-04-17 07:39:00,57.2,54.6,29.32,NW,313,2.7,2.7,91,0.00,,BKN,0.00,VWS V13.01,2013-04-17 11:39:00,
2013-04-17 07:44:00,57.6,55.0,29.32,NW,313,2.7,2.7,91,0.00,,BKN,0.00,VWS V13.01,2013-04-17 11:44:00,
2013-04-17 07:49:00,57.7,55.1,29.32,NW,313,2.7,2.7,91,0.00,,BKN,0.00,VWS V13.01,2013-04-17 11:49:00,
2013-04-17 07:54:00,57.9,55.3,29.35,NW,313,2.7,2.7,91,0.00,,BKN,0.00,VWS V13.01,2013-04-17 11:54:00,
2013-04-17 07:59:00,58.1,55.5,29.35,NW,313,2.7,2.7,91,0.00,,BKN,0.00,VWS V13.01,2013-04-17 11:59:00,
2013-04-17 08:04:00,58.5,55.8,29.35,NW,313,2.7,2.7,91,0.00,,BKN,0.00,VWS V13.01,2013-04-17 12:04:00,
2013-04-17 08:09:00,58.5,55.8,29.32,NW,313,2.7,2.7,91,0.00,,BKN,0.00,VWS V13.01,2013-04-17 12:09:00,
2013-04-17 08:14:00,58.5,55.8,29.32,NW,313,2.7,2.7,91,0.00,,BKN,0.00,VWS V13.01,2013-04-17 12:14:00,
2013-04-17 08:19:00,58.1,55.5,29.32,NW,313,2.7,2.7,91,0.00,,BKN,0.00,VWS V13.01,2013-04-17 12:19:00,
2013-04-17 08:24:00,58.3,55.7,29.32,NW,313,2.7,2.7,91,0.00,,BKN,0.00,VWS V13.01,2013-04-17 12:24:00,
2013-04-17 08:32:00,58.8,56.2,29.32,SE,139,0.0,0.0,91,0.00,,BKN,0.00,VWS V13.01,2013-04-17 12:32:00,
2013-04-17 08:37:00,59.4,57.0,29.32,SE,139,0.0,0.0,92,0.00,,BKN,0.00,VWS V13.01,2013-04-17 12:37:00,
2013-04-17 08:42:00,59.5,57.2,29.32,SE,139,0.0,0.0,92,0.00,,BKN,0.00,VWS V13.01,2013-04-17 12:42:00,
2013-04-17 08:47:00,59.7,57.4,29.32,SE,139,0.0,0.0,92,0.00,,BKN,0.00,VWS V13.01,2013-04-17 12:47:00,
2013-04-17 08:52:00,59.9,57.6,29.32,SE,139,4.0,4.0,92,0.00,,BKN,0.00,VWS V13.01,2013-04-17 12:52:00,
2013-04-17 08:57:00,60.1,57.5,29.35,SE,139,0.0,3.6,91,0.00,,BKN,0.00,VWS V13.01,2013-04-17 12:57:00,
2013-04-17 09:02:00,60.3,57.6,29.35,SE,138,2.7,2.7,91,0.00,,BKN,0.00,VWS V13.01,2013-04-17 13:02:00,
2013-04-17 09:07:00,60.6,58.3,29.35,SE,139,0.0,0.0,92,0.00,,BKN,0.00,VWS V13.01,2013-04-17 13:07:00,
2013-04-17 09:12:00,61.0,58.6,29.35,SE,139,3.1,3.1,92,0.00,,BKN,0.00,VWS V13.01,2013-04-17 13:12:00,
2013-04-17 09:17:00,61.2,58.8,29.35,SE,139,0.0,0.0,92,0.00,,BKN,0.00,VWS V13.01,2013-04-17 13:17:00,
2013-04-17 09:22:00,61.5,59.2,29.35,SE,138,0.0,0.0,92,0.00,,BKN,0.00,VWS V13.01,2013-04-17 13:22:00,
2013-04-17 09:27:00,61.7,59.4,29.35,SE,139,3.1,3.6,92,0.00,,BKN,0.00,VWS V13.01,2013-04-17 13:27:00,
2013-04-17 09:32:00,61.9,59.5,29.35,ESE,117,0.0,0.0,92,0.00,,BKN,0.00,VWS V13.01,2013-04-17 13:32:00,
2013-04-17 09:37:00,63.0,60.6,29.35,ESE,117,2.7,4.0,92,0.00,,BKN,0.00,VWS V13.01,2013-04-17 13:37:00,
2013-04-17 09:42:00,62.8,60.4,29.35,ESE,117,0.0,0.0,92,0.00,,BKN,0.00,VWS V13.01,2013-04-17 13:42:00,
2013-04-17 09:47:00,62.8,60.4,29.35,ESE,117,0.0,3.6,92,0.00,,BKN,0.00,VWS V13.01,2013-04-17 13:47:00,
2013-04-17 09:52:00,63.5,61.1,29.35,NNW,334,3.1,3.6,92,0.00,,BKN,0.00,VWS V13.01,2013-04-17 13:52:00,
2013-04-17 09:57:00,64.0,61.7,29.35,East,88,3.6,4.0,92,0.00,,BKN,0.00,VWS V13.01,2013-04-17 13:57:00,
2013-04-17 10:02:00,64.4,62.0,29.35,NE,43,5.4,5.8,92,0.00,,BKN,0.00,VWS V13.01,2013-04-17 14:02:00,
2013-04-17 10:07:00,64.6,62.2,29.35,NE,51,5.4,5.8,92,0.00,,BKN,0.00,VWS V13.01,2013-04-17 14:07:00,
2013-04-17 10:12:00,64.9,62.9,29.35,North,356,3.6,3.6,93,0.00,,BKN,0.00,VWS V13.01,2013-04-17 14:12:00,
2013-04-17 10:17:00,65.1,63.0,29.35,NE,48,4.9,6.7,93,0.00,,BKN,0.00,VWS V13.01,2013-04-17 14:17:00,
2013-04-17 10:22:00,65.7,63.3,29.35,NE,51,3.1,4.5,92,0.00,,BKN,0.00,VWS V13.01,2013-04-17 14:22:00,
2013-04-17 10:27:00,66.0,63.6,29.35,North,2,3.6,4.5,92,0.00,,BKN,0.00,VWS V13.01,2013-04-17 14:27:00,
2013-04-17 10:32:00,66.0,63.6,29.35,NE,53,4.5,4.5,92,0.00,,BKN,0.00,VWS V13.01,2013-04-17 14:32:00,
2013-04-17 10:37:00,65.8,63.5,29.35,ENE,62,5.4,5.8,92,0.00,,BKN,0.00,VWS V13.01,2013-04-17 14:37:00,
2013-04-17 10:42:00,65.8,62.8,29.35,NE,36,3.6,4.0,90,0.00,,BKN,0.00,VWS V13.01,2013-04-17 14:42:00,
2013-04-17 10:47:00,66.2,62.5,29.35,NNE,15,6.3,6.3,88,0.00,,BKN,0.00,VWS V13.01,2013-04-17 14:47:00,
2013-04-17 10:52:00,66.6,62.6,29.35,NNE,32,6.7,6.7,87,0.00,,BKN,0.00,VWS V13.01,2013-04-17 14:52:00,
2013-04-17 10:57:00,66.7,62.4,29.35,NE,50,4.0,4.5,86,0.00,,BKN,0.00,VWS V13.01,2013-04-17 14:57:00,
2013-04-17 11:02:00,66.7,60.4,29.35,NNE,24,5.8,6.3,80,0.00,,BKN,0.00,VWS V13.01,2013-04-17 15:02:00,
2013-04-17 11:07:00,66.7,60.4,29.35,NNE,22,4.5,6.3,80,0.00,,BKN,0.00,VWS V13.01,2013-04-17 15:07:00,
2013-04-17 11:12:00,66.7,60.4,29.35,NNE,27,5.4,5.8,80,0.00,,BKN,0.00,VWS V13.01,2013-04-17 15:12:00,
2013-04-17 11:17:00,67.3,60.9,29.35,NE,35,6.9,8.3,80,0.00,,BKN,0.00,VWS V13.01,2013-04-17 15:17:00,
2013-04-17 11:22:00,67.6,60.9,29.35,ENE,57,4.5,4.5,79,0.00,,BKN,0.00,VWS V13.01,2013-04-17 15:22:00,
2013-04-17 11:27:00,67.6,59.1,29.35,East,88,3.1,3.6,74,0.00,,BKN,0.00,VWS V13.01,2013-04-17 15:27:00,
2013-04-17 11:32:00,68.0,58.3,29.35,East,96,2.7,4.0,71,0.00,,BKN,0.00,VWS V13.01,2013-04-17 15:32:00,
2013-04-17 11:37:00,67.8,57.3,29.35,NNE,27,3.6,4.5,69,0.00,,BKN,0.00,VWS V13.01,2013-04-17 15:37:00,
2013-04-17 11:42:00,67.8,56.9,29.35,ENE,65,4.0,4.5,68,0.00,,BKN,0.00,VWS V13.01,2013-04-17 15:42:00,
2013-04-17 11:47:00,68.2,56.4,29.35,NE,56,4.9,4.9,66,0.00,,BKN,0.00,VWS V13.01,2013-04-17 15:47:00,
2013-04-17 11:52:00,68.5,55.9,29.35,NE,52,4.5,4.5,64,0.00,,BKN,0.00,VWS V13.01,2013-04-17 15:52:00,
2013-04-17 11:57:00,68.7,55.6,29.35,NE,52,4.5,4.5,63,0.00,,BKN,0.00,VWS V13.01,2013-04-17 15:57:00,
2013-04-17 12:02:00,68.7,55.6,29.35,NE,52,4.5,4.5,63,0.00,,BKN,0.00,VWS V13.01,2013-04-17 16:02:00,
2013-04-17 12:07:00,68.7,54.3,29.35,NE,52,4.5,4.5,60,0.00,,BKN,0.00,VWS V13.01,2013-04-17 16:07:00,
2013-04-17 12:12:00,68.9,54.0,29.35,NE,52,4.5,4.5,59,0.00,,BKN,0.00,VWS V13.01,2013-04-17 16:12:00,
2013-04-17 12:17:00,69.3,54.8,29.35,NE,52,4.5,4.5,60,0.00,,BKN,0.00,VWS V13.01,2013-04-17 16:17:00,
2013-04-17 12:22:00,69.4,54.0,29.35,NE,52,4.5,4.5,58,0.00,,BKN,0.00,VWS V13.01,2013-04-17 16:22:00,
2013-04-17 12:27:00,69.6,54.7,29.35,NE,52,4.5,4.5,59,0.00,,BKN,0.00,VWS V13.01,2013-04-17 16:27:00,
2013-04-17 12:32:00,69.3,54.3,29.35,NE,52,4.5,4.5,59,0.00,,BKN,0.00,VWS V13.01,2013-04-17 16:32:00,
2013-04-17 12:37:00,69.3,54.3,29.35,NE,52,4.5,4.5,59,0.00,,BKN,0.00,VWS V13.01,2013-04-17 16:37:00,
2013-04-17 12:42:00,69.4,54.5,29.35,NE,52,4.5,4.5,59,0.00,,BKN,0.00,VWS V13.01,2013-04-17 16:42:00,
2013-04-17 12:47:00,69.6,54.7,29.35,NE,52,4.5,4.5,59,0.00,,BKN,0.00,VWS V13.01,2013-04-17 16:47:00,
2013-04-17 12:52:00,70.2,55.2,29.35,NE,52,4.5,4.5,59,0.00,,BKN,0.00,VWS V13.01,2013-04-17 16:52:00,
2013-04-17 12:57:00,70.7,55.7,29.35,NE,52,4.5,4.5,59,0.00,,BKN,0.00,VWS V13.01,2013-04-17 16:57:00,
2013-04-17 13:02:00,71.4,56.4,29.35,NE,52,4.5,4.5,59,0.00,,BKN,0.00,VWS V13.01,2013-04-17 17:02:00,
2013-04-17 13:07:00,72.0,56.9,29.35,NE,52,4.5,4.5,59,0.00,,BKN,0.00,VWS V13.01,2013-04-17 17:07:00,
2013-04-17 13:12:00,72.0,56.9,29.32,NE,52,4.5,4.5,59,0.00,,BKN,0.00,VWS V13.01,2013-04-17 17:12:00,
2013-04-17 13:17:00,72.1,57.0,29.32,NE,52,4.5,4.5,59,0.00,,BKN,0.00,VWS V13.01,2013-04-17 17:17:00,
2013-04-17 13:22:00,72.3,57.2,29.32,NE,52,4.5,4.5,59,0.00,,BKN,0.00,VWS V13.01,2013-04-17 17:22:00,
2013-04-17 13:27:00,72.7,57.5,29.32,NE,52,4.5,4.5,59,0.00,,BKN,0.00,VWS V13.01,2013-04-17 17:27:00,
2013-04-17 13:32:00,72.1,57.0,29.32,NE,52,4.5,4.5,59,0.00,,BKN,0.00,VWS V13.01,2013-04-17 17:32:00,
2013-04-17 13:37:00,72.0,56.9,29.32,NE,52,4.5,4.5,59,0.00,,BKN,0.00,VWS V13.01,2013-04-17 17:37:00,
2013-04-17 13:42:00,72.1,57.0,29.32,NE,52,4.5,4.5,59,0.00,,BKN,0.00,VWS V13.01,2013-04-17 17:42:00,
2013-04-17 13:47:00,72.1,57.0,29.32,NE,52,4.5,4.5,59,0.00,,BKN,0.00,VWS V13.01,2013-04-17 17:47:00,
2013-04-17 13:52:00,71.8,56.7,29.32,NE,52,4.5,4.5,59,0.00,,BKN,0.00,VWS V13.01,2013-04-17 17:52:00,
2013-04-17 13:57:00,71.4,56.4,29.32,NE,52,4.5,4.5,59,0.00,,BKN,0.00,VWS V13.01,2013-04-17 17:57:00,
2013-04-17 14:02:00,70.9,55.8,29.32,NE,52,4.5,4.5,59,0.00,,BKN,0.00,VWS V13.01,2013-04-17 18:02:00,
2013-04-17 14:07:00,70.7,55.7,29.32,NE,52,4.5,4.5,59,0.00,,BKN,0.00,VWS V13.01,2013-04-17 18:07:00,
2013-04-17 14:12:00,70.5,55.5,29.32,NE,52,4.5,4.5,59,0.00,,BKN,0.00,VWS V13.01,2013-04-17 18:12:00,
2013-04-17 14:17:00,70.5,55.5,29.32,NE,52,4.5,4.5,59,0.00,,BKN,0.00,VWS V13.01,2013-04-17 18:17:00,
2013-04-17 14:22:00,70.5,55.5,29.32,NE,52,4.5,4.5,59,0.00,,BKN,0.00,VWS V13.01,2013-04-17 18:22:00,
2013-04-17 14:27:00,70.3,55.3,29.32,NE,52,4.5,4.5,59,0.00,,BKN,0.00,VWS V13.01,2013-04-17 18:27:00,
2013-04-17 14:32:00,70.5,55.5,29.32,NE,52,4.5,4.5,59,0.00,,BKN,0.00,VWS V13.01,2013-04-17 18:32:00,
2013-04-17 14:37:00,70.3,55.3,29.32,NE,52,4.5,4.5,59,0.00,,BKN,0.00,VWS V13.01,2013-04-17 18:37:00,
2013-04-17 14:42:00,70.3,55.3,29.32,NE,52,4.5,4.5,59,0.00,,BKN,0.00,VWS V13.01,2013-04-17 18:42:00,
2013-04-17 14:47:00,70.5,55.5,29.32,NE,52,4.5,4.5,59,0.00,,BKN,0.00,VWS V13.01,2013-04-17 18:47:00,
2013-04-17 14:52:00,70.5,55.5,29.32,NE,52,4.5,4.5,59,0.00,,BKN,0.00,VWS V13.01,2013-04-17 18:52:00,
2013-04-17 14:57:00,70.7,55.7,29.32,NE,52,4.5,4.5,59,0.00,,BKN,0.00,VWS V13.01,2013-04-17 18:57:00,
2013-04-17 15:02:00,70.5,55.5,29.32,NE,52,4.5,4.5,59,0.00,,BKN,0.00,VWS V13.01,2013-04-17 19:02:00,
2013-04-17 15:07:00,70.7,55.7,29.32,NE,52,4.5,4.5,59,0.00,,BKN,0.00,VWS V13.01,2013-04-17 19:07:00,
2013-04-17 15:12:00,70.7,55.7,29.32,NE,52,4.5,4.5,59,0.00,,BKN,0.00,VWS V13.01,2013-04-17 19:12:00,
2013-04-17 15:17:00,70.3,55.3,29.32,NE,52,4.5,4.5,59,0.00,,BKN,0.00,VWS V13.01,2013-04-17 19:17:00,
2013-04-17 15:22:00,70.5,55.5,29.32,NE,52,4.5,4.5,59,0.00,,BKN,0.00,VWS V13.01,2013-04-17 19:22:00,
2013-04-17 15:27:00,70.3,55.3,29.32,NE,52,4.5,4.5,59,0.00,,BKN,0.00,VWS V13.01,2013-04-17 19:27:00,
2013-04-17 15:32:00,70.3,55.3,29.32,NE,52,4.5,4.5,59,0.00,,BKN,0.00,VWS V13.01,2013-04-17 19:32:00,
2013-04-17 15:37:00,70.2,55.2,29.32,NE,52,4.5,4.5,59,0.00,,BKN,0.00,VWS V13.01,2013-04-17 19:37:00,
2013-04-17 15:42:00,70.0,55.0,29.29,NE,52,4.5,4.5,59,0.00,,BKN,0.00,VWS V13.01,2013-04-17 19:42:00,
2013-04-17 15:47:00,69.8,54.8,29.29,NE,52,4.5,4.5,59,0.00,,BKN,0.00,VWS V13.01,2013-04-17 19:47:00,
2013-04-17 15:52:00,69.6,54.7,29.29,NE,52,4.5,4.5,59,0.00,,BKN,0.00,VWS V13.01,2013-04-17 19:52:00,
2013-04-17 15:57:00,69.6,54.7,29.29,NE,52,4.5,4.5,59,0.00,,BKN,0.00,VWS V13.01,2013-04-17 19:57:00,
2013-04-17 16:02:00,69.3,54.3,29.29,NE,52,4.5,4.5,59,0.00,,BKN,0.00,VWS V13.01,2013-04-17 20:02:00,
2013-04-17 16:07:00,69.3,54.3,29.29,NE,52,4.5,4.5,59,0.00,,BKN,0.00,VWS V13.01,2013-04-17 20:07:00,
2013-04-17 16:12:00,69.1,54.2,29.29,NE,52,4.5,4.5,59,0.00,,BKN,0.00,VWS V13.01,2013-04-17 20:12:00,
2013-04-17 16:17:00,68.9,54.0,29.29,NE,52,4.5,4.5,59,0.00,,BKN,0.00,VWS V13.01,2013-04-17 20:17:00,
2013-04-17 16:22:00,68.7,53.8,29.29,NE,52,4.5,4.5,59,0.00,,BKN,0.00,VWS V13.01,2013-04-17 20:22:00,
2013-04-17 16:27:00,68.5,53.7,29.32,NE,52,4.5,4.5,59,0.00,,BKN,0.00,VWS V13.01,2013-04-17 20:27:00,
2013-04-17 16:32:00,68.5,53.7,29.32,NE,52,4.5,4.5,59,0.00,,BKN,0.00,VWS V13.01,2013-04-17 20:32:00,
2013-04-17 16:37:00,68.4,53.5,29.32,NE,52,4.5,4.5,59,0.00,,BKN,0.00,VWS V13.01,2013-04-17 20:37:00,
2013-04-17 16:42:00,68.5,53.7,29.29,NE,52,4.5,4.5,59,0.00,,BKN,0.00,VWS V13.01,2013-04-17 20:42:00,
2013-04-17 16:47:00,68.5,53.7,29.29,NE,52,4.5,4.5,59,0.00,,BKN,0.00,VWS V13.01,2013-04-17 20:47:00,
2013-04-17 16:52:00,68.7,53.8,29.29,NE,52,4.5,4.5,59,0.00,,BKN,0.00,VWS V13.01,2013-04-17 20:52:00,
2013-04-17 16:57:00,68.5,53.7,29.29,NE,52,4.5,4.5,59,0.00,,BKN,0.00,VWS V13.01,2013-04-17 20:57:00,
2013-04-17 17:02:00,68.5,53.7,29.29,NE,52,4.5,4.5,59,0.00,,BKN,0.00,VWS V13.01,2013-04-17 21:02:00,
2013-04-17 17:07:00,68.7,53.8,29.29,NE,52,4.5,4.5,59,0.00,,BKN,0.00,VWS V13.01,2013-04-17 21:07:00,
2013-04-17 17:12:00,68.7,53.8,29.29,NE,52,4.5,4.5,59,0.00,,BKN,0.00,VWS V13.01,2013-04-17 21:12:00,
2013-04-17 17:17:00,68.7,53.8,29.29,NE,52,4.5,4.5,59,0.00,,BKN,0.00,VWS V13.01,2013-04-17 21:17:00,
2013-04-17 17:22:00,68.5,53.7,29.29,NE,52,4.5,4.5,59,0.00,,BKN,0.00,VWS V13.01,2013-04-17 21:22:00,
2013-04-17 17:27:00,68.4,53.5,29.32,NE,52,4.5,4.5,59,0.00,,BKN,0.00,VWS V13.01,2013-04-17 21:27:00,
2013-04-17 17:32:00,68.2,53.3,29.32,NE,52,4.5,4.5,59,0.00,,BKN,0.00,VWS V13.01,2013-04-17 21:32:00,
2013-04-17 17:37:00,68.2,53.3,29.32,NE,52,4.5,4.5,59,0.00,,BKN,0.00,VWS V13.01,2013-04-17 21:37:00,
2013-04-17 17:42:00,68.2,53.3,29.32,NE,52,4.5,4.5,59,0.00,,BKN,0.00,VWS V13.01,2013-04-17 21:42:00,
2013-04-17 17:47:00,68.0,53.2,29.32,NE,52,4.5,4.5,59,0.00,,BKN,0.00,VWS V13.01,2013-04-17 21:47:00,
2013-04-17 17:52:00,68.0,53.2,29.32,NE,52,4.5,4.5,59,0.00,,BKN,0.00,VWS V13.01,2013-04-17 21:52:00,
2013-04-17 17:57:00,67.8,53.0,29.32,NE,52,4.5,4.5,59,0.00,,BKN,0.00,VWS V13.01,2013-04-17 21:57:00,
2013-04-17 18:02:00,67.8,53.0,29.32,NE,52,4.5,4.5,59,0.00,,BKN,0.00,VWS V13.01,2013-04-17 22:02:00,
2013-04-17 18:07:00,67.8,53.0,29.32,NE,52,4.5,4.5,59,0.00,,BKN,0.00,VWS V13.01,2013-04-17 22:07:00,
2013-04-17 18:12:00,67.8,53.0,29.32,NE,52,4.5,4.5,59,0.00,,BKN,0.00,VWS V13.01,2013-04-17 22:12:00,
2013-04-17 18:17:00,67.8,53.0,29.32,NE,52,4.5,4.5,59,0.00,,BKN,0.00,VWS V13.01,2013-04-17 22:17:00,
2013-04-17 18:22:00,67.8,52.0,29.32,NE,52,4.5,4.5,57,0.00,,BKN,0.00,VWS V13.01,2013-04-17 22:22:00,
2013-04-17 18:27:00,67.8,52.0,29.32,NE,52,4.5,4.5,57,0.00,,BKN,0.00,VWS V13.01,2013-04-17 22:27:00,
2013-04-17 18:32:00,67.8,52.0,29.32,NE,52,4.5,4.5,57,0.00,,BKN,0.00,VWS V13.01,2013-04-17 22:32:00,
2013-04-17 18:37:00,67.8,52.0,29.32,NE,52,4.5,4.5,57,0.00,,BKN,0.00,VWS V13.01,2013-04-17 22:37:00,
2013-04-17 18:42:00,67.8,52.5,29.32,NE,52,4.5,4.5,58,0.00,,BKN,0.00,VWS V13.01,2013-04-17 22:42:00,
2013-04-17 18:47:00,67.8,52.5,29.32,NE,52,4.5,4.5,58,0.00,,BKN,0.00,VWS V13.01,2013-04-17 22:47:00,
2013-04-17 18:52:00,67.8,52.5,29.32,NE,52,4.5,4.5,58,0.00,,BKN,0.00,VWS V13.01,2013-04-17 22:52:00,
2013-04-17 18:57:00,67.8,52.5,29.32,NE,52,4.5,4.5,58,0.00,,BKN,0.00,VWS V13.01,2013-04-17 22:57:00,
2013-04-17 19:02:00,67.8,52.5,29.32,NE,52,4.5,4.5,58,0.00,,BKN,0.00,VWS V13.01,2013-04-17 23:02:00,
2013-04-17 19:07:00,67.6,52.3,29.32,NE,52,4.5,4.5,58,0.00,,BKN,0.00,VWS V13.01,2013-04-17 23:07:00,
2013-04-17 19:12:00,67.6,52.3,29.32,NE,52,4.5,4.5,58,0.00,,BKN,0.00,VWS V13.01,2013-04-17 23:12:00,
2013-04-17 19:17:00,67.5,51.7,29.32,NE,52,4.5,4.5,57,0.00,,BKN,0.00,VWS V13.01,2013-04-17 23:17:00,
2013-04-17 19:22:00,67.5,51.2,29.32,NE,52,4.5,4.5,56,0.00,,BKN,0.00,VWS V13.01,2013-04-17 23:22:00,
2013-04-17 19:27:00,67.3,51.1,29.32,NE,52,4.5,4.5,56,0.00,,BKN,0.00,VWS V13.01,2013-04-17 23:27:00,
2013-04-17 19:32:00,67.1,50.9,29.32,NE,52,4.5,4.5,56,0.00,,BKN,0.00,VWS V13.01,2013-04-17 23:32:00,
2013-04-17 19:37:00,67.1,50.9,29.32,NE,52,4.5,4.5,56,0.00,,BKN,0.00,VWS V13.01,2013-04-17 23:37:00,
2013-04-17 19:42:00,66.9,51.2,29.32,NE,52,4.5,4.5,57,0.00,,BKN,0.00,VWS V13.01,2013-04-17 23:42:00,
2013-04-17 19:47:00,66.7,51.0,29.32,NE,52,4.5,4.5,57,0.00,,BKN,0.00,VWS V13.01,2013-04-17 23:47:00,
2013-04-17 19:52:00,66.6,50.9,29.32,NE,52,4.5,4.5,57,0.00,,BKN,0.00,VWS V13.01,2013-04-17 23:52:00,
2013-04-17 19:57:00,66.4,50.7,29.32,NE,52,4.5,4.5,57,0.00,,BKN,0.00,VWS V13.01,2013-04-17 23:57:00,
2013-04-17 20:02:00,66.0,50.8,29.32,NE,52,4.5,4.5,58,0.00,,BKN,0.00,VWS V13.01,2013-04-18 00:02:00,
2013-04-17 20:07:00,65.8,50.7,29.32,NE,52,4.5,4.5,58,0.00,,BKN,0.00,VWS V13.01,2013-04-18 00:07:00,
2013-04-17 20:11:00,65.7,51.0,29.32,NE,52,4.5,4.5,59,0.00,,BKN,0.00,VWS V13.01,2013-04-18 00:11:00,
2013-04-17 20:16:00,65.5,50.8,29.32,NE,52,4.5,4.5,59,0.00,,BKN,0.00,VWS V13.01,2013-04-18 00:16:00,
2013-04-17 20:22:00,65.3,51.1,29.32,NE,52,4.5,4.5,60,0.00,,BKN,0.00,VWS V13.01,2013-04-18 00:22:00,
2013-04-17 20:27:00,65.1,50.9,29.32,NE,52,4.5,4.5,60,0.00,,BKN,0.00,VWS V13.01,2013-04-18 00:27:00,
2013-04-17 20:32:00,64.9,51.2,29.32,NE,52,4.5,4.5,61,0.00,,BKN,0.00,VWS V13.01,2013-04-18 00:32:00,
2013-04-17 20:37:00,64.8,51.0,29.32,NE,52,4.5,4.5,61,0.00,,BKN,0.00,VWS V13.01,2013-04-18 00:37:00,
2013-04-17 20:42:00,64.8,51.5,29.32,NE,52,4.5,4.5,62,0.00,,BKN,0.00,VWS V13.01,2013-04-18 00:42:00,
2013-04-17 20:47:00,64.8,51.5,29.32,NE,52,4.5,4.5,62,0.00,,BKN,0.00,VWS V13.01,2013-04-18 00:47:00,
2013-04-17 20:52:00,64.8,51.5,29.32,NE,52,4.5,4.5,62,0.00,,BKN,0.00,VWS V13.01,2013-04-18 00:52:00,
2013-04-17 20:57:00,64.8,51.5,29.32,NE,52,4.5,4.5,62,0.00,,BKN,0.00,VWS V13.01,2013-04-18 00:57:00,
2013-04-17 21:01:00,64.8,51.9,29.32,NE,52,4.5,4.5,63,0.00,,BKN,0.00,VWS V13.01,2013-04-18 01:01:00,
2013-04-17 21:07:00,64.8,51.9,29.32,NE,52,4.5,4.5,63,0.00,,BKN,0.00,VWS V13.01,2013-04-18 01:07:00,
2013-04-17 21:12:00,64.6,51.7,29.32,NE,52,4.5,4.5,63,0.00,,BKN,0.00,VWS V13.01,2013-04-18 01:12:00,
2013-04-17 21:17:00,64.6,51.7,29.32,NE,52,4.5,4.5,63,0.00,,BKN,0.00,VWS V13.01,2013-04-18 01:17:00,
2013-04-17 21:22:00,64.4,51.5,29.32,NE,52,4.5,4.5,63,0.00,,BKN,0.00,VWS V13.01,2013-04-18 01:22:00,
2013-04-17 21:27:00,64.4,51.5,29.32,NE,52,4.5,4.5,63,0.00,,BKN,0.00,VWS V13.01,2013-04-18 01:27:00,
2013-04-17 21:32:00,64.4,51.5,29.32,NE,52,4.5,4.5,63,0.00,,BKN,0.00,VWS V13.01,2013-04-18 01:32:00,
2013-04-17 21:37:00,64.4,51.5,29.32,NNE,32,4.9,5.8,63,0.00,,BKN,0.00,VWS V13.01,2013-04-18 01:37:00,
2013-04-17 21:41:00,64.4,51.5,29.35,NE,34,3.1,4.5,63,0.00,,BKN,0.00,VWS V13.01,2013-04-18 01:41:00,
2013-04-17 21:46:00,64.2,51.4,29.35,NE,37,3.6,4.0,63,0.00,,BKN,0.00,VWS V13.01,2013-04-18 01:46:00,
2013-04-17 21:52:00,64.2,51.4,29.35,North,7,2.7,3.6,63,0.00,,BKN,0.00,VWS V13.01,2013-04-18 01:52:00,
2013-04-17 21:57:00,64.2,51.4,29.35,NNE,19,4.0,4.0,63,0.00,,BKN,0.00,VWS V13.01,2013-04-18 01:57:00,
2013-04-17 22:02:00,64.0,51.2,29.35,NE,56,3.1,5.8,63,0.00,,BKN,0.00,VWS V13.01,2013-04-18 02:02:00,
2013-04-17 22:07:00,64.0,51.2,29.35,NNE,24,3.1,5.8,63,0.00,,BKN,0.00,VWS V13.01,2013-04-18 02:07:00,
2013-04-17 22:12:00,64.0,51.2,29.35,NE,50,3.6,3.6,63,0.00,,BKN,0.00,VWS V13.01,2013-04-18 02:12:00,
2013-04-17 22:17:00,64.0,51.2,29.35,NE,43,4.5,4.5,63,0.00,,BKN,0.00,VWS V13.01,2013-04-18 02:17:00,
2013-04-17 22:21:00,63.9,51.0,29.35,ENE,62,3.1,4.0,63,0.00,,BKN,0.00,VWS V13.01,2013-04-18 02:21:00,
2013-04-17 22:26:00,63.9,51.0,29.35,NE,56,4.9,4.9,63,0.00,,BKN,0.00,VWS V13.01,2013-04-18 02:26:00,
2013-04-17 22:32:00,63.9,51.0,29.35,ENE,62,4.0,4.5,63,0.00,,BKN,0.00,VWS V13.01,2013-04-18 02:32:00,
2013-04-17 22:37:00,63.9,51.0,29.35,ENE,60,3.6,3.6,63,0.00,,BKN,0.00,VWS V13.01,2013-04-18 02:37:00,
2013-04-17 22:42:00,63.7,51.3,29.35,NE,55,4.5,4.5,64,0.00,,BKN,0.00,VWS V13.01,2013-04-18 02:42:00,
2013-04-17 22:47:00,63.7,51.3,29.35,NE,49,3.6,3.6,64,0.00,,BKN,0.00,VWS V13.01,2013-04-18 02:47:00,
2013-04-17 22:52:00,63.7,51.3,29.35,NE,55,3.1,4.0,64,0.00,,BKN,0.00,VWS V13.01,2013-04-18 02:52:00,
2013-04-17 22:57:00,63.5,51.1,29.35,NE,47,4.0,4.9,64,0.00,,BKN,0.00,VWS V13.01,2013-04-18 02:57:00,
2013-04-17 23:02:00,63.5,51.1,29.35,NE,48,4.0,4.9,64,0.00,,BKN,0.00,VWS V13.01,2013-04-18 03:02:00,
2013-04-17 23:07:00,63.3,51.4,29.35,NE,37,4.9,5.8,65,0.00,,BKN,0.00,VWS V13.01,2013-04-18 03:07:00,
2013-04-17 23:12:00,63.3,51.8,29.35,NE,49,6.3,6.7,66,0.00,,BKN,0.00,VWS V13.01,2013-04-18 03:12:00,
2013-04-17 23:17:00,63.5,52.0,29.35,NE,36,6.3,6.3,66,0.00,,BKN,0.00,VWS V13.01,2013-04-18 03:17:00,
2013-04-17 23:22:00,63.7,51.7,29.35,NE,39,5.8,7.8,65,0.00,,BKN,0.00,VWS V13.01,2013-04-18 03:22:00,
2013-04-17 23:27:00,63.9,51.5,29.35,ENE,69,5.8,8.3,64,0.00,,BKN,0.00,VWS V13.01,2013-04-18 03:27:00,
2013-04-17 23:32:00,64.0,51.2,29.35,East,101,3.6,3.6,63,0.00,,BKN,0.00,VWS V13.01,2013-04-18 03:32:00,
2013-04-17 23:37:00,64.2,50.9,29.35,East,96,4.5,6.9,62,0.00,,BKN,0.00,VWS V13.01,2013-04-18 03:37:00,
2013-04-17 23:42:00,64.2,50.5,29.35,East,95,5.4,9.2,61,0.00,,BKN,0.00,VWS V13.01,2013-04-18 03:42:00,
2013-04-17 23:47:00,64.2,50.1,29.35,NNE,32,6.3,10.1,60,0.00,,BKN,0.00,VWS V13.01,2013-04-18 03:47:00,
2013-04-17 23:52:00,64.0,49.4,29.35,ESE,117,5.4,12.1,59,0.00,,BKN,0.00,VWS V13.01,2013-04-18 03:52:00,
2013-04-17 23:57:00,64.0,49.4,29.35,ENE,66,5.8,8.7,59,0.00,,BKN,0.00,VWS V13.01,2013-04-18 03:57:00,